Time;durP1;ratioP1;P1;durP2;ratioP2;P2;SDS_P1;SDS_P2;PMS_P1;PMS_P2;Temp;Humidity;BMP_temperature;BMP_pressure;BME280_temperature;BME280_humidity;BME280_pressure;Samples;Min_cycle;Max_cycle;Signal;HPM_P1;HPM_P2
2021/12/23 00:00:06;;;;;;;27.38;12.85;;;;;;;-4.89;nan;95989.50;6094425;23;20010;-79
2021/12/23 00:02:32;;;;;;;32.72;13.75;;;;;;;-4.09;nan;96122.63;6120503;23;20404;-79
2021/12/23 00:04:57;;;;;;;27.55;12.63;;;;;;;-4.68;nan;96039.84;6093856;23;20189;-79
2021/12/23 00:07:23;;;;;;;28.55;13.13;;;;;;;-4.54;nan;96050.53;6118372;23;20425;-78
2021/12/23 00:12:16;;;;;;;32.75;14.55;;;;;;;-4.30;nan;96074.69;6123136;23;20013;-79
2021/12/23 00:14:41;;;;;;;28.70;12.88;;;;;;;-4.02;nan;96127.00;6123349;23;20018;-79
2021/12/23 00:17:21;;;;;;;33.78;13.68;;;;;;;-4.86;nan;95976.22;6122685;23;20014;-79
2021/12/23 00:25:14;;;;;;;38.13;13.88;;;;;;;-4.30;nan;96045.41;6090574;23;20090;-79
2021/12/23 00:27:40;;;;;;;31.20;12.85;;;;;;;-3.74;nan;96131.91;6092427;23;20323;-79
2021/12/23 00:30:06;;;;;;;31.55;13.05;;;;;;;-4.23;nan;96067.09;6089298;23;20041;-79
2021/12/23 00:32:32;;;;;;;34.13;13.30;;;;;;;-4.06;nan;96092.03;6091546;23;20026;-79
2021/12/23 00:34:57;;;;;;;28.17;12.30;;;;;;;-4.16;nan;96098.34;6091416;23;20015;-79
2021/12/23 00:37:23;;;;;;;37.13;13.50;;;;;;;-3.99;nan;96112.94;6089768;23;20010;-79
2021/12/23 00:39:48;;;;;;;34.08;14.32;;;;;;;-3.77;nan;96130.44;6091602;23;20010;-79
2021/12/23 00:42:14;;;;;;;29.33;13.43;;;;;;;-4.40;nan;96034.38;6093550;23;20036;-79
2021/12/23 00:44:45;;;;;;;31.88;12.68;;;;;;;-4.19;nan;96086.50;6067835;23;20369;-80
2021/12/23 00:47:10;;;;;;;37.00;14.02;;;;;;;-3.79;nan;96097.88;6093365;23;20014;-79
2021/12/23 00:49:36;;;;;;;27.50;13.10;;;;;;;-3.58;nan;96131.88;6067995;23;20414;-80
2021/12/23 00:52:03;;;;;;;31.90;13.52;;;;;;;-4.10;nan;96082.97;6094240;23;20151;-80
2021/12/23 00:54:29;;;;;;;28.15;13.15;;;;;;;-4.39;nan;96023.84;6093947;23;20074;-80
2021/12/23 00:56:54;;;;;;;30.77;13.23;;;;;;;-3.79;nan;96126.38;6092450;23;20382;-80
2021/12/23 00:59:20;;;;;;;34.78;12.65;;;;;;;-4.32;nan;96042.16;6094011;23;20359;-80
2021/12/23 01:01:47;;;;;;;28.30;12.93;;;;;;;-4.42;nan;96067.38;6069322;23;20371;-80
2021/12/23 01:04:12;;;;;;;30.55;13.07;;;;;;;-4.08;nan;96085.41;6071804;23;20458;-81
2021/12/23 01:06:38;;;;;;;34.85;13.98;;;;;;;-4.32;nan;96016.25;6071338;23;20014;-82
2021/12/23 01:09:03;;;;;;;25.63;11.63;;;;;;;-4.49;nan;95996.50;6090568;23;20021;-83
2021/12/23 01:11:29;;;;;;;49.22;18.88;;;;;;;-4.10;nan;96058.84;6065417;23;20014;-82
2021/12/23 01:14:14;;;;;;;59.83;24.38;;;;;;;-3.72;nan;96109.19;6066157;23;20442;-81
2021/12/23 01:17:00;;;;;;;77.88;27.67;;;;;;;-4.25;nan;96016.41;6066083;23;20074;-81
2021/12/23 01:19:27;;;;;;;75.43;29.15;;;;;;;-4.13;nan;96031.50;6090034;23;20013;-82
2021/12/23 01:21:52;;;;;;;77.97;27.90;;;;;;;-3.86;nan;96076.97;6084241;23;20193;-82
2021/12/23 01:24:18;;;;;;;72.05;29.50;;;;;;;-3.61;nan;96120.06;6065776;23;20014;-82
2021/12/23 01:26:43;;;;;;;81.38;30.10;;;;;;;-4.41;nan;96007.66;6089691;23;20014;-81
2021/12/23 01:29:10;;;;;;;75.82;28.98;;;;;;;-4.58;nan;95992.28;6090277;23;20010;-82
2021/12/23 01:31:37;;;;;;;67.78;26.48;;;;;;;-4.80;nan;95953.09;6093297;23;20010;-82
2021/12/23 01:34:03;;;;;;;68.95;28.55;;;;;;;-5.04;nan;95963.44;6094783;23;20327;-82
2021/12/23 01:36:29;;;;;;;79.90;29.52;;;;;;;-4.47;nan;96028.22;6097688;23;20017;-82
2021/12/23 01:38:55;;;;;;;64.30;22.90;;;;;;;-4.33;nan;96048.28;6096647;23;20336;-82
2021/12/23 01:41:23;;;;;;;62.80;23.48;;;;;;;-4.50;nan;96000.84;6098421;23;20023;-81
2021/12/23 01:43:49;;;;;;;59.10;23.33;;;;;;;-4.24;nan;96057.69;6098578;23;20497;-82
2021/12/23 01:46:15;;;;;;;53.35;22.90;;;;;;;-4.71;nan;95975.44;6072043;23;20025;-83
2021/12/23 01:48:40;;;;;;;48.60;21.85;;;;;;;-4.38;nan;96003.94;6098965;23;20066;-82
2021/12/23 01:51:06;;;;;;;55.83;22.70;;;;;;;-4.79;nan;95970.25;6098812;23;20015;-82
2021/12/23 01:53:46;;;;;;;48.95;16.78;;;;;;;-4.31;nan;96060.13;3828488;23;10001891;-82
2021/12/23 01:56:11;;;;;;;52.80;21.30;;;;;;;-4.51;nan;96016.56;3141344;23;10001613;-82
2021/12/23 01:58:38;;;;;;;49.38;22.45;;;;;;;-4.27;nan;96043.28;6095693;23;20368;-82
2021/12/23 02:01:05;;;;;;;46.60;20.60;;;;;;;-5.08;nan;95928.47;6094118;23;20013;-82
2021/12/23 02:03:30;;;;;;;44.78;20.08;;;;;;;-4.09;nan;96082.00;6093691;23;20002;-82
2021/12/23 02:05:56;;;;;;;49.63;20.85;;;;;;;-4.02;nan;96108.88;6070385;23;20097;-81
2021/12/23 02:08:21;;;;;;;55.88;21.33;;;;;;;-3.93;nan;96113.09;6072665;23;20074;-81
2021/12/23 02:10:47;;;;;;;55.22;24.10;;;;;;;-4.45;nan;96032.28;6072517;23;20006;-81
2021/12/23 02:13:12;;;;;;;74.88;30.35;;;;;;;-5.08;nan;95949.97;6098096;23;20370;-81
2021/12/23 02:15:38;;;;;;;74.50;30.30;;;;;;;-5.00;nan;95962.13;6096096;23;20109;-81
2021/12/23 02:18:04;;;;;;;69.85;28.13;;;;;;;-5.32;nan;95902.56;6095862;23;20010;-81
2021/12/23 02:20:32;;;;;;;75.32;29.55;;;;;;;-3.99;nan;96115.53;6078021;23;20018;-82
2021/12/23 02:22:58;;;;;;;74.50;27.35;;;;;;;-4.00;nan;96114.72;6101716;23;20013;-81
2021/12/23 02:25:24;;;;;;;75.00;27.70;;;;;;;-4.45;nan;96070.28;6128301;23;20130;-81
2021/12/23 02:27:51;;;;;;;72.55;30.55;;;;;;;-4.07;nan;96113.75;6100302;23;20014;-81
2021/12/23 02:30:23;;;;;;;72.68;29.75;;;;;;;-4.20;nan;96081.50;6125581;23;20016;-82
2021/12/23 02:32:50;;;;;;;73.78;27.98;;;;;;;-4.18;nan;96103.66;6124999;23;20010;-80
2021/12/23 02:35:17;;;;;;;66.68;27.27;;;;;;;-4.58;nan;96038.88;6122259;23;20097;-80
2021/12/23 02:37:44;;;;;;;59.08;24.08;;;;;;;-4.61;nan;96058.13;6098160;23;20001;-80
2021/12/23 02:40:11;;;;;;;51.90;22.48;;;;;;;-4.48;nan;96112.03;6123853;23;20438;-81
2021/12/23 02:42:37;;;;;;;53.92;20.13;;;;;;;-4.87;nan;96023.75;6101463;23;20016;-81
2021/12/23 02:45:09;;;;;;;55.30;23.05;;;;;;;-4.43;nan;96117.56;6099704;23;19998;-81
2021/12/23 02:47:35;;;;;;;43.33;17.50;;;;;;;-5.45;nan;96021.94;6125918;23;20014;-81
2021/12/23 02:50:00;;;;;;;43.45;16.67;;;;;;;-4.95;nan;96098.75;6100174;23;20024;-81
2021/12/23 02:52:26;;;;;;;42.70;16.90;;;;;;;-4.75;nan;96121.66;6125279;23;20037;-81
2021/12/23 02:54:56;;;;;;;34.63;14.82;;;;;;;-5.26;nan;96044.13;6100644;23;20128;-81
2021/12/23 02:57:21;;;;;;;34.05;14.48;;;;;;;-4.99;nan;96069.00;6127229;23;20005;-81
2021/12/23 02:59:47;;;;;;;31.40;14.13;;;;;;;-4.86;nan;96072.75;6126177;23;20347;-81
2021/12/23 03:02:12;;;;;;;39.17;15.40;;;;;;;-4.96;nan;96066.94;6102589;23;20002;-81
2021/12/23 03:04:38;;;;;;;33.00;14.77;;;;;;;-5.04;nan;96055.72;6128108;23;20166;-81
2021/12/23 03:07:04;;;;;;;40.15;15.90;;;;;;;-5.08;nan;96062.97;6127797;23;20014;-82
2021/12/23 03:09:29;;;;;;;34.90;15.50;;;;;;;-5.00;nan;96057.84;6138667;23;20013;-81
2021/12/23 03:11:55;;;;;;;37.63;15.65;;;;;;;-5.17;nan;96032.88;6128839;23;20358;-81
2021/12/23 03:14:20;;;;;;;34.95;15.82;;;;;;;-5.37;nan;96013.41;6125276;23;20042;-81
2021/12/23 03:16:47;;;;;;;38.42;16.73;;;;;;;-5.95;nan;95900.44;6099393;23;20347;-82
2021/12/23 03:19:13;;;;;;;49.33;18.67;;;;;;;-5.50;nan;95990.56;6098920;23;20093;-81
2021/12/23 03:21:38;;;;;;;40.67;18.10;;;;;;;-4.90;nan;96083.59;6124878;23;20441;-81
2021/12/23 03:24:04;;;;;;;44.33;17.23;;;;;;;-5.86;nan;95933.03;6098419;23;20064;-81
2021/12/23 03:26:30;;;;;;;37.47;17.00;;;;;;;-5.79;nan;95952.13;6124705;23;20060;-82
2021/12/23 03:28:55;;;;;;;41.60;17.55;;;;;;;-4.98;nan;96083.56;6124162;23;20047;-81
2021/12/23 03:31:21;;;;;;;38.53;17.10;;;;;;;-5.55;nan;96039.31;6125360;23;20083;-81
2021/12/23 03:33:46;;;;;;;45.60;17.25;;;;;;;-5.72;nan;96015.16;6122804;23;20033;-81
2021/12/23 03:36:12;;;;;;;32.67;15.32;;;;;;;-5.52;nan;96032.06;6098217;23;20014;-82
2021/12/23 03:38:37;;;;;;;35.72;16.40;;;;;;;-5.55;nan;96008.28;6122518;23;20017;-81
2021/12/23 03:41:03;;;;;;;40.85;17.63;;;;;;;-5.94;nan;95951.94;6121994;23;20057;-81
2021/12/23 03:43:29;;;;;;;43.85;18.45;;;;;;;-5.11;nan;96089.16;6122844;23;20098;-81
2021/12/23 03:45:55;;;;;;;45.25;18.10;;;;;;;-5.24;nan;96066.31;6123433;23;20006;-82
2021/12/23 03:48:21;;;;;;;47.03;18.10;;;;;;;-5.41;nan;96049.06;6123044;23;20013;-81
2021/12/23 03:50:48;;;;;;;43.45;19.83;;;;;;;-5.31;nan;96061.91;6121592;23;20005;-81
2021/12/23 03:53:14;;;;;;;43.20;18.08;;;;;;;-5.91;nan;95967.13;6097609;23;20437;-81
2021/12/23 03:55:40;;;;;;;51.70;20.30;;;;;;;-5.48;nan;96048.88;6098335;23;20018;-82
2021/12/23 03:58:06;;;;;;;43.70;19.20;;;;;;;-5.05;nan;96083.38;6123425;23;20005;-81
2021/12/23 04:00:32;;;;;;;50.88;19.83;;;;;;;-5.20;nan;96067.63;6097097;23;20062;-81
2021/12/23 04:02:57;;;;;;;40.72;18.75;;;;;;;-6.14;nan;95913.56;6121267;23;20005;-81
2021/12/23 04:05:23;;;;;;;39.72;19.65;;;;;;;-4.95;nan;96104.75;6096838;23;20025;-81
2021/12/23 04:07:49;;;;;;;49.90;20.15;;;;;;;-5.69;nan;95968.34;6121004;23;20088;-81
2021/12/23 04:10:17;;;;;;;46.95;21.20;;;;;;;-4.94;nan;96098.59;6096248;23;20014;-81
2021/12/23 04:12:44;;;;;;;46.63;21.77;;;;;;;-5.26;nan;96037.19;6121674;23;20012;-80
2021/12/23 04:15:11;;;;;;;54.28;23.58;;;;;;;-5.28;nan;96052.06;6096975;23;20018;-81
2021/12/23 04:17:38;;;;;;;57.30;26.52;;;;;;;-6.13;nan;95936.66;6121976;23;20013;-81
2021/12/23 04:22:44;;;;;;;51.40;21.70;;;;;;;-5.51;nan;96012.22;6125975;23;20418;-81
2021/12/23 04:25:11;;;;;;;51.10;22.27;;;;;;;-5.53;nan;96003.78;6124758;23;20061;-80
2021/12/23 04:27:37;;;;;;;41.97;20.42;;;;;;;-4.87;nan;96098.78;6098452;23;20006;-80
2021/12/23 04:30:07;;;;;;;46.42;18.88;;;;;;;-4.96;nan;96112.69;6122350;23;20093;-81
2021/12/23 04:32:33;;;;;;;47.93;19.70;;;;;;;-5.74;nan;95986.09;6124193;23;20006;-81
2021/12/23 04:34:58;;;;;;;46.72;18.48;;;;;;;-5.87;nan;95957.25;6124229;23;20045;-81
2021/12/23 04:37:24;;;;;;;52.75;20.17;;;;;;;-5.22;nan;96055.81;6098377;23;20052;-81
2021/12/23 04:39:50;;;;;;;62.15;20.20;;;;;;;-4.91;nan;96113.00;6124486;23;20021;-80
2021/12/23 04:42:15;;;;;;;47.08;19.70;;;;;;;-6.02;nan;95941.53;6124070;23;20012;-80
2021/12/23 04:44:40;;;;;;;46.33;20.55;;;;;;;-5.27;nan;96056.28;6123567;23;20029;-81
2021/12/23 04:47:06;;;;;;;51.58;20.17;;;;;;;-5.37;nan;96047.81;6123775;23;20437;-81
2021/12/23 04:49:31;;;;;;;52.60;20.67;;;;;;;-5.52;nan;95997.66;6124475;23;20097;-81
2021/12/23 04:51:57;;;;;;;43.83;19.65;;;;;;;-5.24;nan;96047.38;6124758;23;20465;-81
2021/12/23 04:54:22;;;;;;;52.65;21.88;;;;;;;-5.82;nan;95967.97;6098963;23;20361;-81
2021/12/23 04:56:48;;;;;;;47.38;19.00;;;;;;;-5.09;nan;96075.09;6098443;23;20422;-81
2021/12/23 04:59:13;;;;;;;42.45;18.58;;;;;;;-5.54;nan;96015.91;6097808;23;20024;-81
2021/12/23 05:01:39;;;;;;;42.22;18.88;;;;;;;-6.03;nan;95946.88;6122132;23;20084;-81
2021/12/23 05:04:04;;;;;;;43.13;17.52;;;;;;;-5.53;nan;96030.44;6097791;23;20379;-82
2021/12/23 05:06:30;;;;;;;38.17;17.88;;;;;;;-5.63;nan;96018.59;6122317;23;20311;-81
2021/12/23 05:08:55;;;;;;;48.80;20.92;;;;;;;-4.99;nan;96110.38;6096495;23;20018;-81
2021/12/23 05:11:21;;;;;;;48.88;20.10;;;;;;;-5.14;nan;96079.94;6124174;23;20016;-82
2021/12/23 05:13:47;;;;;;;52.25;21.30;;;;;;;-6.14;nan;95922.13;6095979;23;20100;-82
2021/12/23 05:16:16;;;;;;;48.63;18.58;;;;;;;-5.05;nan;96109.25;6096402;23;20006;-82
2021/12/23 05:18:41;;;;;;;50.75;20.30;;;;;;;-5.20;nan;96067.63;6099068;23;20018;-82
2021/12/23 05:21:07;;;;;;;46.30;18.25;;;;;;;-5.15;nan;96074.91;6095349;23;20556;-82
2021/12/23 05:23:33;;;;;;;42.65;18.20;;;;;;;-5.29;nan;96045.28;6120882;23;20014;-82
2021/12/23 05:25:59;;;;;;;54.33;19.38;;;;;;;-5.16;nan;96079.28;6117535;23;20006;-81
2021/12/23 05:28:25;;;;;;;56.28;20.40;;;;;;;-5.10;nan;96108.88;6121517;23;20136;-81
2021/12/23 05:30:50;;;;;;;50.15;19.67;;;;;;;-5.38;nan;96076.41;6107750;23;20018;-82
2021/12/23 05:33:16;;;;;;;51.72;19.77;;;;;;;-5.49;nan;96046.44;6110942;23;20437;-82
2021/12/23 05:35:42;;;;;;;51.25;19.50;;;;;;;-5.89;nan;95979.91;6114623;23;20014;-81
2021/12/23 05:38:07;;;;;;;44.05;20.13;;;;;;;-5.97;nan;95978.06;6120227;23;20083;-81
2021/12/23 05:40:34;;;;;;;36.13;16.90;;;;;;;-5.58;nan;96030.09;6118408;23;20564;-81
2021/12/23 05:43:02;;;;;;;37.47;16.98;;;;;;;-5.65;nan;96018.75;6088017;23;20094;-81
2021/12/23 05:45:28;;;;;;;34.75;15.80;;;;;;;-5.31;nan;96061.91;6091937;23;20423;-82
2021/12/23 05:47:56;;;;;;;39.55;13.95;;;;;;;-5.33;nan;96043.13;6091057;23;20064;-81
2021/12/23 05:50:35;;;;;;;29.13;13.75;;;;;;;-4.95;nan;96102.16;6097681;23;20021;-80
2021/12/23 05:53:04;;;;;;;38.38;14.75;;;;;;;-6.17;nan;95927.56;6112553;23;20608;-80
2021/12/23 05:55:29;;;;;;;34.00;13.57;;;;;;;-5.90;nan;95998.94;6111350;23;20107;-80
2021/12/23 05:57:55;;;;;;;38.92;17.10;;;;;;;-6.26;nan;95926.75;6113564;23;20006;-79
2021/12/23 06:00:26;;;;;;;36.38;17.05;;;;;;;-5.42;nan;96054.44;6088648;23;20373;-81
2021/12/23 06:02:53;;;;;;;42.67;18.88;;;;;;;-5.16;nan;96112.72;6116036;23;20064;-80
2021/12/23 06:05:19;;;;;;;62.90;23.63;;;;;;;-5.97;nan;96001.31;6093233;23;20006;-80
2021/12/23 06:07:45;;;;;;;79.35;29.38;;;;;;;-5.25;nan;96113.81;6118367;23;20009;-81
2021/12/23 06:10:12;;;;;;;79.63;31.10;;;;;;;-5.21;nan;96130.66;6115966;23;20018;-80
2021/12/23 06:12:38;;;;;;;90.23;33.60;;;;;;;-5.82;nan;96011.88;6089442;23;20010;-80
2021/12/23 06:15:04;;;;;;;99.75;35.67;;;;;;;-5.38;nan;96097.91;6114433;23;20072;-80
2021/12/23 06:17:31;;;;;;;92.07;33.88;;;;;;;-6.21;nan;95959.03;6117275;23;20465;-81
2021/12/23 06:19:57;;;;;;;79.07;33.17;;;;;;;-5.80;nan;96035.78;6091536;23;20013;-81
2021/12/23 06:22:22;;;;;;;88.43;32.95;;;;;;;-5.81;nan;96030.78;6111509;23;20033;-80
2021/12/23 06:24:49;;;;;;;85.97;33.22;;;;;;;-5.84;nan;96047.38;6115915;23;20010;-80
2021/12/23 06:27:17;;;;;;;93.45;32.63;;;;;;;-5.69;nan;96053.59;6114478;23;20041;-80
2021/12/23 06:29:43;;;;;;;80.07;33.92;;;;;;;-5.80;nan;96007.38;6107651;23;20020;-80
2021/12/23 06:32:09;;;;;;;96.13;34.38;;;;;;;-5.70;nan;96062.31;6110093;23;20017;-79
2021/12/23 06:34:36;;;;;;;97.45;37.03;;;;;;;-5.22;nan;96130.78;6113440;23;20014;-81
2021/12/23 06:37:03;;;;;;;106.85;38.15;;;;;;;-5.60;nan;96070.78;6088625;23;20020;-80
2021/12/23 06:39:30;;;;;;;96.82;40.38;;;;;;;-5.08;nan;96125.06;6111907;23;20014;-80
2021/12/23 06:41:56;;;;;;;129.43;41.10;;;;;;;-5.49;nan;96070.53;6104217;23;20010;-79
2021/12/23 06:44:21;;;;;;;97.78;38.63;;;;;;;-4.96;nan;96123.84;6107887;23;20037;-80
2021/12/23 06:46:47;;;;;;;102.13;38.22;;;;;;;-5.91;nan;95961.16;6111494;23;20602;-80
2021/12/23 06:49:13;;;;;;;102.55;39.08;;;;;;;-4.92;nan;96125.13;6113046;23;20033;-79
2021/12/23 06:51:39;;;;;;;98.82;38.58;;;;;;;-5.27;nan;96086.50;6109013;23;20018;-79
2021/12/23 06:54:04;;;;;;;95.32;36.67;;;;;;;-5.73;nan;96012.75;6110490;23;20018;-80
2021/12/23 06:56:30;;;;;;;99.38;40.20;;;;;;;-5.54;nan;96057.25;6108126;23;20021;-80
2021/12/23 06:58:56;;;;;;;101.80;38.10;;;;;;;-5.38;nan;96051.38;6086749;23;20017;-79
2021/12/23 07:01:22;;;;;;;116.03;40.10;;;;;;;-6.42;nan;95897.44;6111167;23;20045;-80
2021/12/23 07:06:31;;;;;;;101.80;40.28;;;;;;;-5.60;nan;96005.38;6116078;23;20056;-80
2021/12/23 07:08:57;;;;;;;96.80;38.53;;;;;;;-5.61;nan;95998.56;6110589;23;20234;-80
2021/12/23 07:11:23;;;;;;;84.75;35.10;;;;;;;-5.93;nan;95952.75;6089588;23;20131;-79
2021/12/23 07:13:49;;;;;;;92.32;37.58;;;;;;;-5.63;nan;96019.41;6085198;23;20271;-80
2021/12/23 07:16:15;;;;;;;90.72;38.88;;;;;;;-6.49;nan;95863.69;6116138;23;20014;-80
2021/12/23 07:18:43;;;;;;;114.75;41.65;;;;;;;-6.60;nan;95835.53;6089567;23;20404;-80
2021/12/23 07:21:08;;;;;;;116.25;47.28;;;;;;;-5.60;nan;95995.84;6112173;23;20028;-80
2021/12/23 07:23:34;;;;;;;132.57;55.65;;;;;;;-5.69;nan;95978.69;6113833;23;20010;-80
2021/12/23 07:25:59;;;;;;;199.38;75.57;;;;;;;-5.09;nan;96098.38;6113896;23;20089;-81
2021/12/23 07:28:26;;;;;;;193.35;77.25;;;;;;;-5.66;nan;95967.22;6115841;23;20049;-82
2021/12/23 07:30:51;;;;;;;174.77;70.75;;;;;;;-4.77;nan;96121.00;6085337;23;20018;-81
2021/12/23 07:33:17;;;;;;;160.05;61.20;;;;;;;-5.42;nan;95993.19;6113840;23;20033;-82
2021/12/23 07:35:42;;;;;;;153.85;60.50;;;;;;;-4.85;nan;96083.94;6087991;23;20017;-81
2021/12/23 07:38:08;;;;;;;137.55;56.65;;;;;;;-4.58;nan;96138.06;6110033;23;20014;-81
2021/12/23 07:40:34;;;;;;;136.68;50.20;;;;;;;-5.29;nan;96024.59;6086073;23;20014;-81
2021/12/23 07:45:46;;;;;;;118.22;42.47;;;;;;;-4.73;nan;96114.53;6111577;23;20021;-80
2021/12/23 07:48:12;;;;;;;110.10;44.47;;;;;;;-5.63;nan;95987.56;6105381;23;20014;-80
2021/12/23 07:50:41;;;;;;;108.82;41.50;;;;;;;-6.24;nan;95846.53;6083734;23;20382;-80
2021/12/23 07:53:06;;;;;;;107.97;44.42;;;;;;;-4.42;nan;96152.81;6105854;23;20744;-80
2021/12/23 07:55:32;;;;;;;125.00;45.13;;;;;;;-4.53;nan;96142.75;6113551;23;20010;-80
2021/12/23 07:57:59;;;;;;;111.10;44.13;;;;;;;-5.15;nan;96070.56;6088097;23;20466;-81
2021/12/23 08:00:29;;;;;;;108.25;41.38;;;;;;;-5.75;nan;96010.31;6073633;23;20048;-79
2021/12/23 08:02:55;;;;;;;104.72;41.33;;;;;;;-4.90;nan;96143.09;6110394;23;20013;-79
2021/12/23 08:05:21;;;;;;;99.15;40.50;;;;;;;-5.00;nan;96106.19;6107956;23;20476;-80
2021/12/23 08:07:46;;;;;;;96.35;40.15;;;;;;;-5.29;nan;96084.06;6108486;23;20120;-79
2021/12/23 08:10:14;;;;;;;93.25;39.33;;;;;;;-5.29;nan;96093.59;6112977;23;20325;-80
2021/12/23 08:12:39;;;;;;;102.90;41.45;;;;;;;-5.65;nan;96029.09;6086639;23;20018;-81
2021/12/23 08:15:06;;;;;;;102.93;38.55;;;;;;;-5.77;nan;96001.88;6086447;23;20752;-80
2021/12/23 08:17:31;;;;;;;102.70;37.88;;;;;;;-5.07;nan;96080.94;6108274;23;20005;-80
2021/12/23 08:19:57;;;;;;;93.68;38.38;;;;;;;-5.96;nan;95919.47;6086988;23;20029;-79
2021/12/23 08:22:22;;;;;;;107.65;39.08;;;;;;;-4.97;nan;96080.81;6112210;23;20029;-78
2021/12/23 08:24:48;;;;;;;107.10;39.63;;;;;;;-5.44;nan;96008.03;6103844;23;20083;-79
2021/12/23 08:27:14;;;;;;;95.13;36.60;;;;;;;-6.16;nan;95898.22;6078617;23;20469;-79
2021/12/23 08:29:39;;;;;;;101.32;37.47;;;;;;;-6.15;nan;95879.19;6107042;23;20366;-79
2021/12/23 08:32:05;;;;;;;92.05;37.40;;;;;;;-5.11;nan;96002.00;6113058;23;20018;-79
2021/12/23 08:34:36;;;;;;;91.88;37.00;;;;;;;-4.80;nan;96076.50;6083430;23;20497;-79
2021/12/23 08:37:02;;;;;;;90.25;36.25;;;;;;;-4.98;nan;96006.75;6100134;23;20013;-79
2021/12/23 08:39:28;;;;;;;90.20;34.40;;;;;;;-5.30;nan;95985.97;6080702;23;20014;-79
2021/12/23 08:41:53;;;;;;;95.28;36.80;;;;;;;-4.24;nan;96127.63;6109153;23;20017;-79
2021/12/23 08:44:19;;;;;;;100.93;38.00;;;;;;;-4.14;nan;96125.72;6114307;23;20064;-79
2021/12/23 08:46:45;;;;;;;84.97;35.75;;;;;;;-4.66;nan;96052.63;6111891;23;20045;-80
2021/12/23 08:49:10;;;;;;;90.28;40.15;;;;;;;-6.36;nan;95785.84;6107848;23;20065;-80
2021/12/23 08:51:37;;;;;;;102.90;37.40;;;;;;;-5.08;nan;95985.38;6075880;23;20427;-79
2021/12/23 08:54:04;;;;;;;84.78;35.55;;;;;;;-4.27;nan;96113.19;6085547;23;20014;-80
2021/12/23 08:56:29;;;;;;;87.47;34.22;;;;;;;-4.62;nan;96051.31;6111791;23;20013;-80
2021/12/23 08:58:55;;;;;;;90.80;33.40;;;;;;;-5.33;nan;95929.38;6078634;23;20024;-79
2021/12/23 09:01:21;;;;;;;93.15;36.28;;;;;;;-4.25;nan;96104.47;6103883;23;20027;-80
2021/12/23 09:03:47;;;;;;;67.80;28.63;;;;;;;-4.46;nan;96064.31;6089827;23;20064;-80
2021/12/23 09:06:13;;;;;;;73.80;29.05;;;;;;;-4.15;nan;96085.22;6110105;23;20476;-79
2021/12/23 09:08:38;;;;;;;71.93;29.02;;;;;;;-4.84;nan;95971.69;6084486;23;20040;-80
2021/12/23 09:11:04;;;;;;;71.65;30.98;;;;;;;-4.88;nan;95958.25;6109378;23;20014;-80
2021/12/23 09:13:30;;;;;;;75.28;32.70;;;;;;;-4.02;nan;96038.09;6114799;23;20010;-80
2021/12/23 09:15:57;;;;;;;68.32;29.83;;;;;;;-4.31;nan;96000.56;6091566;23;20327;-80
2021/12/23 09:18:25;;;;;;;70.90;30.33;;;;;;;-4.70;nan;95920.13;6086441;23;20358;-80
2021/12/23 09:20:52;;;;;;;80.47;31.80;;;;;;;-3.88;nan;96064.19;6090082;23;20030;-79
2021/12/23 09:23:18;;;;;;;73.93;32.42;;;;;;;-4.11;nan;96006.22;6111051;23;20014;-81
2021/12/23 09:25:45;;;;;;;70.10;28.45;;;;;;;-4.40;nan;95960.09;6111929;23;20292;-79
2021/12/23 09:33:42;;;;;;;68.25;29.25;;;;;;;-3.68;nan;96046.53;6114439;23;20024;-79
2021/12/23 09:36:08;;;;;;;69.95;29.33;;;;;;;-3.62;nan;96029.50;6090334;23;20292;-79
2021/12/23 09:38:34;;;;;;;75.05;31.30;;;;;;;-4.19;nan;95907.78;6114925;23;20109;-79
2021/12/23 09:41:13;;;;;;;73.65;31.30;;;;;;;-3.22;nan;96050.16;6094150;23;20005;-80
2021/12/23 09:43:40;;;;;;;72.45;31.20;;;;;;;-3.06;nan;96035.50;6092592;23;20014;-80
2021/12/23 09:46:09;;;;;;;73.18;31.00;;;;;;;-3.59;nan;95974.72;6089250;23;20006;-80
2021/12/23 09:48:35;;;;;;;77.35;29.48;;;;;;;-3.90;nan;95920.22;6091827;23;20468;-80
2021/12/23 09:51:04;;;;;;;62.13;27.98;;;;;;;-3.26;nan;95996.97;6116254;23;20010;-80
2021/12/23 09:53:32;;;;;;;65.38;27.13;;;;;;;-4.08;nan;95911.81;6115880;23;20132;-80
2021/12/23 09:56:00;;;;;;;66.40;26.80;;;;;;;-3.19;nan;96018.66;6112961;23;20017;-81
2021/12/23 09:58:25;;;;;;;67.78;27.98;;;;;;;-3.73;nan;95926.13;6116546;23;20060;-81
2021/12/23 10:00:51;;;;;;;63.00;27.55;;;;;;;-3.10;nan;95998.69;6083280;23;20785;-80
2021/12/23 10:03:19;;;;;;;71.05;26.63;;;;;;;-2.99;nan;95997.50;6117499;23;20097;-81
2021/12/23 10:05:45;;;;;;;72.72;31.13;;;;;;;-3.47;nan;95934.47;6119989;23;20259;-81
2021/12/23 10:08:13;;;;;;;71.40;27.52;;;;;;;-3.22;nan;96000.03;6118321;23;20405;-81
2021/12/23 10:33:30;;;;;;;64.40;29.63;;;;;;;1.11;nan;95954.28;6121504;23;20010;-80
2021/12/23 10:38:40;;;;;;;61.75;30.30;;;;;;;1.94;nan;95960.09;6120255;23;20080;-80
2021/12/23 10:41:12;;;;;;;69.07;26.25;;;;;;;0.78;nan;95852.31;6093333;23;20014;-80
2021/12/23 10:43:41;;;;;;;60.60;27.35;;;;;;;1.44;nan;95868.13;6119147;23;20500;-79
2021/12/23 10:46:27;;;;;;;57.30;26.20;;;;;;;2.43;nan;95943.97;6121883;23;20010;-80
2021/12/23 10:49:29;;;;;;;52.17;25.27;;;;;;;2.17;nan;95899.50;6094390;23;20014;-80
2021/12/23 10:52:03;;;;;;;44.55;22.98;;;;;;;2.19;nan;95825.03;6119476;23;20382;-80
2021/12/23 11:00:22;;;;;;;53.78;24.48;;;;;;;2.89;nan;95849.56;6115653;23;20112;-80
2021/12/23 11:03:09;;;;;;;43.70;22.00;;;;;;;3.06;nan;95920.59;6119136;23;20018;-80
2021/12/23 11:05:41;;;;;;;49.72;22.33;;;;;;;2.66;nan;95886.72;6118639;23;20406;-80
2021/12/23 11:08:25;;;;;;;;;;;;;;;2.96;nan;95905.34;6113713;23;20009;-80
2021/12/23 11:40:59;;;;;;;42.13;21.55;;;;;;;0.83;nan;95723.78;6110778;23;20526;-80
2021/12/23 11:43:30;;;;;;;48.95;21.10;;;;;;;1.07;nan;95762.34;6086939;23;20017;-80
2021/12/23 11:45:57;;;;;;;45.90;20.92;;;;;;;1.59;nan;95848.84;6105919;23;20543;-79
2021/12/23 11:48:23;;;;;;;47.92;22.98;;;;;;;1.43;nan;95795.16;6115609;23;20021;-80
2021/12/23 11:51:07;;;;;;;45.03;19.98;;;;;;;1.85;nan;95843.59;6079574;23;20327;-79
2021/12/23 11:53:35;;;;;;;60.70;20.52;;;;;;;0.87;nan;95700.69;6088149;23;20014;-79
2021/12/23 11:56:06;;;;;;;45.45;22.67;;;;;;;1.58;nan;95771.41;6115542;23;20057;-79
2021/12/23 11:58:32;;;;;;;43.35;20.67;;;;;;;1.97;nan;95839.38;6113438;23;20014;-79
2021/12/23 12:01:15;;;;;;;48.80;20.08;;;;;;;2.08;nan;95835.31;6112952;23;20061;-79
2021/12/23 12:04:07;;;;;;;40.20;19.80;;;;;;;2.22;nan;95834.25;6087620;23;20163;-79
2021/12/23 12:06:45;;;;;;;42.33;18.58;;;;;;;2.25;nan;95826.81;6106727;23;20157;-79
2021/12/23 12:09:26;;;;;;;44.25;19.20;;;;;;;1.33;nan;95760.78;6106082;23;20099;-79
2021/12/23 12:12:09;;;;;;;39.60;18.10;;;;;;;1.72;nan;95827.91;6085639;23;20081;-79
2021/12/23 12:14:42;;;;;;;40.35;18.77;;;;;;;2.01;nan;95824.06;6113471;23;20500;-79
2021/12/23 12:17:23;;;;;;;40.63;18.08;;;;;;;2.22;nan;95821.19;6106674;23;20014;-80
2021/12/23 12:20:20;;;;;;;39.07;17.10;;;;;;;2.15;nan;95818.59;6109556;23;20017;-79
2021/12/23 12:22:46;;;;;;;36.53;17.55;;;;;;;1.96;nan;95822.06;6114289;23;20168;-80
2021/12/23 12:25:48;;;;;;;38.47;18.02;;;;;;;1.81;nan;95756.91;6103305;23;20025;-79
2021/12/23 12:28:22;;;;;;;43.63;17.67;;;;;;;1.79;nan;95718.88;6115734;23;20094;-80
2021/12/23 12:30:50;;;;;;;46.72;18.25;;;;;;;1.98;nan;95777.38;6112710;23;20020;-80
2021/12/23 12:33:19;;;;;;;45.90;19.30;;;;;;;1.90;nan;95818.44;6107375;23;20044;-80
2021/12/23 12:36:02;;;;;;;44.60;18.67;;;;;;;2.05;nan;95814.81;6108897;23;20453;-79
2021/12/23 12:38:40;;;;;;;48.88;19.65;;;;;;;2.26;nan;95804.88;6081295;23;20212;-80
2021/12/23 12:41:18;;;;;;;47.88;20.00;;;;;;;2.03;nan;95801.13;6082388;23;20020;-79
2021/12/23 12:44:01;;;;;;;48.72;19.05;;;;;;;2.40;nan;95795.16;6116594;23;20085;-79
2021/12/23 12:46:45;;;;;;;42.92;19.90;;;;;;;2.26;nan;95798.84;6113512;23;20092;-79
2021/12/23 12:49:41;;;;;;;39.53;18.92;;;;;;;2.13;nan;95767.47;6110503;23;20434;-78
2021/12/23 12:52:45;;;;;;;48.47;21.02;;;;;;;2.38;nan;95794.56;6080619;23;20124;-79
2021/12/23 12:55:22;;;;;;;57.65;20.50;;;;;;;2.29;nan;95767.00;6027057;23;20448;-79
2021/12/23 12:57:51;;;;;;;39.47;18.50;;;;;;;2.24;nan;95795.63;5998165;23;20019;-80
2021/12/23 13:00:37;;;;;;;45.47;18.15;;;;;;;1.66;nan;95674.47;6075385;23;20097;-78